Date,TemperatureHighF,TemperatureAvgF,TemperatureLowF,DewpointHighF,DewpointAvgF,DewpointLowF,HumidityHigh,HumidityAvg,HumidityLow,PressureMaxIn,PressureMinIn,WindSpeedMaxMPH,WindSpeedAvgMPH,GustSpeedMaxMPH,PrecipitationSumIn
2012-9-7,83.8,73.7,71.1,71.6,68.8,67.4,92,85,58,29.93,29.89,0,0,0,0.09
2012-9-8,84.5,75.4,64.7,72.1,68.9,60.8,92,81,59,29.92,29.63,2,0,10,0.11
2012-9-9,75.1,65.2,56.9,61.6,57.8,53.3,91,78,50,29.88,29.73,0,0,1,0.02
2012-9-10,68.6,60.3,51.9,53.5,49.7,44.1,91,70,49,30.08,29.87,1,0,4,0.00
2012-9-11,75.4,59.6,45.9,51.0,47.0,42.1,88,66,36,30.29,30.08,0,0,2,0.00
2012-9-12,81.6,63.5,47.6,58.2,51.6,44.5,90,69,32,30.39,30.29,1,0,3,0.00
2012-9-13,86.6,69.3,56.9,64.0,59.3,54.3,92,73,42,30.38,30.27,1,0,4,0.00
2012-9-14,86.3,70.9,59.0,65.1,61.1,56.1,92,74,44,30.29,30.09,1,0,6,0.00
2012-9-15,64.9,63.1,61.7,60.6,59.7,58.7,91,89,84,30.09,30.03,0,0,0,0.03
2012-9-18,74.6,73.2,70.3,68.1,67.0,66.2,87,81,76,29.83,29.70,3,2,11,0.06
2012-9-19,73.9,64.7,50.8,68.5,53.8,43.1,92,71,39,30.23,29.70,4,0,13,1.19
2012-9-20,71.0,55.4,43.1,49.9,46.1,40.0,90,73,44,30.32,30.20,1,0,3,0.00
2012-9-21,68.6,54.7,46.1,54.7,48.8,43.0,94,81,57,30.22,30.08,0,0,2,0.00
2012-9-22,74.4,62.3,55.5,61.8,56.7,52.3,92,83,62,30.07,29.85,0,0,6,0.02
2012-9-23,73.1,63.1,48.1,62.9,52.5,43.4,92,71,37,30.13,29.81,1,0,4,0.08
2012-9-24,69.0,53.4,41.5,46.5,43.1,38.4,91,71,38,30.17,30.08,1,0,3,0.00
2012-9-25,75.3,57.9,41.7,52.3,46.4,38.6,91,69,42,30.20,30.12,2,0,10,0.00
2012-9-26,73.2,65.4,57.3,62.9,59.0,52.0,88,80,69,30.16,30.02,1,0,6,0.00
2012-9-27,73.5,62.5,50.2,61.4,51.8,44.9,92,71,41,30.28,30.02,1,0,7,0.00
2012-9-28,57.0,54.2,49.7,54.6,51.3,46.3,92,90,84,30.28,30.01,1,0,3,0.94
2012-9-29,57.6,55.6,52.6,54.2,52.7,50.3,92,90,85,30.01,29.91,0,0,3,0.08
2012-9-30,59.4,55.7,51.5,56.0,53.0,49.3,92,91,86,29.95,29.74,0,0,1,0.08
2012-10-1,66.7,57.4,49.2,55.2,51.1,47.0,92,80,62,29.97,29.72,2,0,6,0.00
2012-10-2,70.7,60.5,53.4,60.5,56.0,50.5,92,86,62,30.09,29.96,0,0,2,0.14
2012-10-3,64.6,62.2,60.6,62.2,60.0,58.6,93,92,91,30.20,30.06,0,0,1,0.10
2012-10-4,62.3,61.0,59.5,59.9,58.9,57.5,93,93,91,30.20,30.06,0,0,1,0.04
2012-10-5,79.2,65.5,57.7,63.3,58.8,55.7,94,81,50,30.07,29.93,0,0,2,0.01
2012-10-6,78.6,64.4,51.8,62.9,56.4,45.2,93,77,54,29.95,29.71,3,0,7,0.00
2012-10-7,58.6,51.5,44.0,48.0,43.8,40.4,89,76,53,30.11,29.95,0,0,4,0.18
2012-10-8,58.5,49.8,40.6,46.8,43.8,38.2,92,81,58,30.35,30.08,0,0,2,0.02
2012-10-9,59.0,52.5,48.1,50.0,46.9,44.5,89,81,64,30.35,30.17,0,0,2,0.00
2012-10-10,61.2,55.1,48.7,58.9,52.5,44.8,93,91,80,30.17,29.75,0,0,3,0.23
2012-10-11,61.2,50.6,42.5,50.0,39.8,36.0,90,69,41,30.16,29.83,2,0,5,0.00
2012-10-12,54.1,44.7,35.1,43.9,36.0,26.8,88,73,44,30.41,30.03,1,0,4,0.05
2012-10-13,55.8,42.1,29.4,35.0,28.9,25.4,92,62,34,30.51,30.34,1,0,4,0.00
2012-10-14,64.7,53.7,45.2,57.3,48.3,34.3,92,82,65,30.36,29.96,1,0,7,0.38
2012-10-15,77.4,66.1,57.0,62.8,59.0,53.5,90,79,59,29.96,29.62,3,0,11,0.00
2012-10-16,63.1,53.1,40.2,60.1,43.9,36.5,92,72,47,29.93,29.58,4,0,16,0.37
2012-10-17,64.5,45.1,33.9,42.5,37.3,31.0,91,77,37,30.04,29.92,1,0,16,0.00
2012-10-18,70.9,52.3,38.2,50.9,44.2,35.5,92,77,41,30.17,30.03,1,0,4,0.00
2012-10-19,66.9,59.4,49.4,64.8,55.9,46.6,93,89,68,30.13,29.76,2,0,6,0.19
2012-10-20,77.6,66.5,55.5,65.7,58.6,46.8,93,78,44,29.79,29.62,1,0,4,1.52
2012-10-21,65.5,54.2,44.3,46.8,43.2,40.9,92,68,44,29.91,29.76,4,0,9,0.00
2012-10-22,69.9,55.4,45.7,45.8,43.3,41.3,88,66,40,30.04,29.91,4,1,11,0.00
2012-10-23,68.0,53.6,43.3,47.7,43.9,39.7,92,72,45,30.15,30.04,1,0,5,0.00
2012-10-24,56.8,51.0,43.2,46.6,39.7,34.1,87,66,52,30.26,30.15,1,0,2,0.00
2012-10-25,70.2,53.5,41.1,45.8,40.7,33.9,90,66,31,30.34,30.25,0,0,3,0.00
2012-10-26,69.8,54.4,43.2,55.2,47.8,40.1,90,79,59,30.30,30.14,1,0,4,0.00
2012-10-27,69.1,54.9,45.9,55.8,48.9,43.3,92,81,61,30.16,30.03,1,0,3,0.00
2012-10-28,56.0,53.0,50.3,51.8,49.5,47.7,92,88,82,30.06,29.82,1,0,6,0.15
2012-10-29,61.1,55.8,50.9,58.5,53.2,48.6,92,91,90,29.82,29.26,5,2,15,1.15
2012-10-30,69.4,61.9,53.3,60.1,57.2,51.0,92,85,72,29.61,29.53,2,0,6,0.57
2012-10-31,57.5,53.4,48.7,54.8,48.9,41.6,93,85,71,29.60,29.49,1,0,5,0.00
2012-11-1,59.0,50.8,43.3,43.0,41.4,38.9,87,71,53,29.60,29.52,2,0,6,0.00
2012-11-2,53.1,47.7,41.6,42.0,40.1,37.4,87,76,58,29.64,29.56,3,0,6,0.01
2012-11-3,53.9,46.2,41.3,38.5,35.6,32.1,87,67,51,29.84,29.64,4,1,9,0.00
2012-11-4,54.0,43.2,34.4,37.2,33.3,29.6,88,69,52,29.99,29.82,4,1,6,0.00
2012-11-5,48.8,39.6,29.7,29.8,25.4,21.7,73,57,40,30.18,29.98,4,0,7,0.00
2012-11-6,46.4,33.9,24.3,23.8,21.1,17.5,83,62,35,30.28,30.18,2,0,5,0.00
2012-11-7,37.5,34.8,28.8,29.1,25.7,21.8,87,70,54,30.24,29.81,3,1,10,0.00
2012-11-8,40.1,37.4,32.6,37.0,33.6,29.3,89,86,77,29.82,29.67,4,2,10,0.01
2012-11-9,55.3,44.3,37.1,33.5,29.3,25.0,77,58,33,30.14,29.80,4,1,9,0.00
2012-11-10,58.4,42.7,32.9,36.2,30.8,26.8,87,65,35,30.50,30.13,2,0,6,0.00
2012-11-11,65.9,50.8,33.7,46.7,41.1,29.0,84,71,47,30.55,30.43,2,0,10,0.00
2012-11-12,71.3,58.7,48.6,58.4,51.1,44.0,91,77,51,30.50,30.25,2,0,6,0.00
2012-11-13,66.1,51.5,37.4,60.1,47.2,32.5,92,85,75,30.47,30.14,4,0,7,0.04
2012-11-14,51.2,40.6,33.6,33.1,28.0,25.0,77,62,39,30.59,30.47,2,0,7,0.00
2012-11-15,48.1,37.9,32.4,31.9,28.6,25.5,86,70,49,30.52,30.35,1,0,4,0.00
2012-11-16,49.6,38.0,31.7,32.5,29.7,26.4,92,73,49,30.48,30.33,0,0,2,0.00
2012-11-17,53.1,37.5,28.2,33.7,28.9,24.6,87,73,46,30.71,30.48,1,0,3,0.00
2012-11-18,53.1,36.3,25.6,35.0,28.3,22.3,88,74,46,30.78,30.67,1,0,4,0.00
2012-11-19,52.4,36.5,27.3,36.6,29.4,23.7,88,77,54,30.67,30.32,1,0,4,0.00
2012-11-20,53.4,37.6,25.7,36.5,29.8,22.4,89,75,51,30.32,30.17,0,0,3,0.00
2012-11-21,53.2,41.2,32.5,40.8,34.3,28.2,89,77,55,30.31,30.20,1,0,6,0.00
2012-11-22,59.7,44.4,34.7,42.2,37.1,31.5,89,77,50,30.33,30.17,0,0,2,0.00
2012-11-23,58.5,44.5,32.1,45.7,38.8,29.5,92,81,60,30.17,29.67,1,0,5,0.00
2012-11-24,48.4,42.7,34.4,44.2,27.7,17.4,90,57,40,29.69,29.56,7,3,12,0.00
2012-11-25,39.6,35.1,31.0,24.2,19.9,14.1,67,54,37,29.90,29.69,6,2,16,0.00
2012-11-26,47.5,37.6,30.3,28.0,24.2,21.3,76,60,40,30.28,29.90,5,1,12,0.00
2012-11-27,37.2,33.9,29.8,33.5,29.8,23.4,91,85,76,30.38,30.27,0,0,0,0.01
2012-11-28,38.7,33.9,27.1,32.4,27.4,23.6,91,78,60,30.27,30.16,1,0,3,0.00
2012-11-29,44.9,35.6,27.0,27.7,25.2,23.0,87,67,49,30.30,30.18,3,1,8,0.00
2012-11-30,39.3,34.2,30.4,27.8,20.9,9.6,71,59,40,30.54,30.22,1,0,4,0.00
2012-12-3,60.0,47.4,34.4,43.1,38.8,31.2,88,73,53,30.34,30.16,3,0,7,0.00
2012-12-4,58.2,45.2,32.6,54.3,42.3,29.7,92,90,87,30.37,29.99,2,0,5,0.00
2012-12-5,59.0,50.3,34.0,54.8,38.9,17.4,87,66,48,30.18,29.85,6,2,12,0.00
2012-12-6,43.3,33.2,25.0,21.2,19.5,17.4,80,58,40,30.36,30.18,3,0,7,0.00
2012-12-7,44.7,35.8,23.9,40.2,30.2,18.9,91,80,68,30.34,30.07,1,0,4,0.00
2012-12-8,44.1,42.9,42.4,41.9,40.6,40.0,92,91,91,30.07,29.90,0,0,2,0.00
2012-12-9,46.1,41.7,37.0,42.5,36.7,32.5,93,83,61,30.34,29.98,0,0,2,0.00
2012-12-10,57.9,48.7,39.9,55.9,46.6,37.2,94,92,90,30.20,29.52,2,0,6,0.00
2012-12-11,53.9,44.2,33.5,51.9,35.8,23.8,93,73,53,30.19,29.55,5,1,10,0.00
2012-12-12,40.5,32.4,28.5,25.7,24.4,23.1,84,73,52,30.48,30.19,1,0,3,0.00
2012-12-13,47.7,32.6,25.1,30.2,25.2,22.0,89,76,48,30.52,30.33,1,0,3,0.00
2012-12-14,51.6,35.8,25.2,29.8,25.2,21.9,89,68,33,30.33,30.08,3,0,7,0.00
2012-12-15,45.2,34.7,29.3,26.6,24.2,19.2,86,68,39,30.39,30.20,2,0,5,0.00
2012-12-16,32.1,30.1,29.2,29.5,23.9,19.8,90,78,67,30.38,30.13,0,0,2,0.00
2012-12-17,35.6,32.5,29.3,33.5,30.0,26.6,92,90,89,30.14,29.85,0,0,1,0.00
2012-12-18,47.2,41.9,35.6,45.3,39.9,33.5,93,93,92,29.86,29.44,2,0,4,0.00
2012-12-19,48.5,42.1,37.0,39.5,33.9,30.0,92,73,58,30.07,29.48,4,2,10,0.00
2012-12-20,46.4,37.5,28.5,34.4,30.2,25.4,89,75,56,30.26,30.07,1,0,4,0.00
2012-12-21,53.7,44.8,37.3,50.6,40.3,33.0,97,84,71,30.08,29.10,5,2,15,0.00
2012-12-22,39.6,35.0,30.6,33.0,24.3,16.0,83,66,51,29.68,29.26,6,2,12,0.00
2012-12-23,41.1,33.3,27.4,25.2,20.7,16.0,74,60,46,29.90,29.67,5,1,15,0.00
2012-12-24,43.4,33.9,29.2,23.5,21.6,19.4,76,61,41,30.10,29.89,3,0,10,0.00
2012-12-25,34.4,31.5,27.1,27.6,24.0,18.2,83,74,63,30.27,30.03,1,0,4,0.00
2012-12-26,37.5,30.1,20.2,32.5,22.3,15.0,90,73,47,30.36,29.97,1,0,5,0.00
2012-12-27,44.2,37.2,32.7,41.7,34.3,28.5,97,89,81,29.97,29.31,3,1,13,0.00
2012-12-28,39.2,32.8,28.8,28.1,23.8,20.2,81,69,57,30.05,29.66,6,2,12,0.00
2012-12-29,33.7,30.3,26.5,30.1,25.8,22.6,92,83,71,30.05,29.45,0,0,4,0.00
2012-12-30,31.6,28.3,22.9,27.6,18.6,9.4,90,68,51,30.02,29.48,6,2,15,0.00
2012-12-31,34.8,28.3,20.0,24.9,18.9,10.0,76,67,57,30.08,29.80,4,1,10,0.00
2013-1-1,37.8,32.3,19.5,26.8,18.7,7.5,70,57,45,29.98,29.75,7,2,15,0.00